sensor_id;sensor_type;location;lat;lon;timestamp;pressure;altitude;pressure_sealevel;temperature;humidity
33191;BME280;19554;42.652;23.364;2023-08-01T00:00:29;94289.28;;;24.15;49.08
33191;BME280;19554;42.652;23.364;2023-08-01T00:02:54;94298.66;;;24.18;48.97
33191;BME280;19554;42.652;23.364;2023-08-01T00:05:20;94291.22;;;24.15;49.05
33191;BME280;19554;42.652;23.364;2023-08-01T00:07:45;94200.91;;;23.54;49.22
33191;BME280;19554;42.652;23.364;2023-08-01T00:10:10;94241.97;;;23.82;48.93
33191;BME280;19554;42.652;23.364;2023-08-01T00:12:36;94288.88;;;24.17;49.12
33191;BME280;19554;42.652;23.364;2023-08-01T00:15:01;94282.63;;;24.12;48.81
33191;BME280;19554;42.652;23.364;2023-08-01T00:17:27;94254.53;;;23.98;49.14
33191;BME280;19554;42.652;23.364;2023-08-01T00:19:52;94289.69;;;24.17;48.64
33191;BME280;19554;42.652;23.364;2023-08-01T00:22:20;94270.13;;;24.01;48.78
33191;BME280;19554;42.652;23.364;2023-08-01T00:24:45;94286.56;;;24.15;48.98
33191;BME280;19554;42.652;23.364;2023-08-01T00:27:13;94267.78;;;24.03;48.72
33191;BME280;19554;42.652;23.364;2023-08-01T00:29:38;94284.19;;;24.10;49.00
33191;BME280;19554;42.652;23.364;2023-08-01T00:32:04;94289.72;;;24.21;48.34
33191;BME280;19554;42.652;23.364;2023-08-01T00:34:29;94294.00;;;24.22;48.56
33191;BME280;19554;42.652;23.364;2023-08-01T00:36:55;94283.44;;;24.20;48.30
33191;BME280;19554;42.652;23.364;2023-08-01T00:39:20;94285.78;;;24.18;48.52
33191;BME280;19554;42.652;23.364;2023-08-01T00:41:45;94292.00;;;24.11;48.72
33191;BME280;19554;42.652;23.364;2023-08-01T00:44:11;94294.50;;;23.79;49.68
33191;BME280;19554;42.652;23.364;2023-08-01T00:46:36;94288.53;;;23.63;50.33
33191;BME280;19554;42.652;23.364;2023-08-01T00:49:02;94273.16;;;23.37;50.57
33191;BME280;19554;42.652;23.364;2023-08-01T00:51:29;94289.16;;;23.38;51.16
33191;BME280;19554;42.652;23.364;2023-08-01T00:53:56;94288.38;;;23.41;51.16
33191;BME280;19554;42.652;23.364;2023-08-01T00:56:22;94287.53;;;23.34;51.91
33191;BME280;19554;42.652;23.364;2023-08-01T00:58:47;94289.72;;;23.17;52.04
33191;BME280;19554;42.652;23.364;2023-08-01T01:01:12;94290.53;;;23.18;52.47
33191;BME280;19554;42.652;23.364;2023-08-01T01:03:38;94283.38;;;23.03;52.31
33191;BME280;19554;42.652;23.364;2023-08-01T01:06:14;94280.47;;;22.88;52.91
33191;BME280;19554;42.652;23.364;2023-08-01T01:08:43;94248.81;;;22.73;52.94
33191;BME280;19554;42.652;23.364;2023-08-01T01:11:08;94280.28;;;23.04;52.63
33191;BME280;19554;42.652;23.364;2023-08-01T01:13:34;94278.78;;;23.14;52.54
33191;BME280;19554;42.652;23.364;2023-08-01T01:15:59;94252.31;;;23.11;52.62
33191;BME280;19554;42.652;23.364;2023-08-01T01:18:25;94249.22;;;23.09;52.57
33191;BME280;19554;42.652;23.364;2023-08-01T01:20:50;94277.38;;;23.31;52.12
33191;BME280;19554;42.652;23.364;2023-08-01T01:23:17;94272.81;;;23.38;51.93
33191;BME280;19554;42.652;23.364;2023-08-01T01:25:43;94271.28;;;23.45;51.59
33191;BME280;19554;42.652;23.364;2023-08-01T01:28:10;94236.56;;;23.34;51.49
33191;BME280;19554;42.652;23.364;2023-08-01T01:30:36;94259.66;;;23.55;51.40
33191;BME280;19554;42.652;23.364;2023-08-01T01:33:03;94252.69;;;23.57;50.84
33191;BME280;19554;42.652;23.364;2023-08-01T01:35:33;94255.84;;;23.63;50.83
33191;BME280;19554;42.652;23.364;2023-08-01T01:37:58;94259.84;;;23.73;50.80
33191;BME280;19554;42.652;23.364;2023-08-01T01:40:28;94266.88;;;23.77;50.50
33191;BME280;19554;42.652;23.364;2023-08-01T01:42:54;94252.03;;;23.71;50.55
33191;BME280;19554;42.652;23.364;2023-08-01T01:45:19;94239.19;;;23.75;50.33
33191;BME280;19554;42.652;23.364;2023-08-01T01:47:45;94221.63;;;23.69;50.28
33191;BME280;19554;42.652;23.364;2023-08-01T01:50:10;94242.00;;;23.89;50.16
33191;BME280;19554;42.652;23.364;2023-08-01T01:52:35;94255.56;;;23.75;50.85
33191;BME280;19554;42.652;23.364;2023-08-01T01:55:01;94249.66;;;23.66;50.81
33191;BME280;19554;42.652;23.364;2023-08-01T01:57:26;94238.63;;;23.52;50.74
33191;BME280;19554;42.652;23.364;2023-08-01T01:59:51;94268.38;;;23.71;51.04
33191;BME280;19554;42.652;23.364;2023-08-01T02:02:17;94220.28;;;23.41;50.73
33191;BME280;19554;42.652;23.364;2023-08-01T02:04:42;94268.41;;;23.75;50.94
33191;BME280;19554;42.652;23.364;2023-08-01T02:07:08;94231.66;;;23.58;51.15
33191;BME280;19554;42.652;23.364;2023-08-01T02:09:33;94252.44;;;23.73;50.90
33191;BME280;19554;42.652;23.364;2023-08-01T02:11:58;94253.63;;;23.79;50.96
33191;BME280;19554;42.652;23.364;2023-08-01T02:14:24;94229.34;;;23.56;50.63
33191;BME280;19554;42.652;23.364;2023-08-01T02:16:49;94256.66;;;23.67;51.04
33191;BME280;19554;42.652;23.364;2023-08-01T02:19:15;94262.41;;;23.55;50.99
33191;BME280;19554;42.652;23.364;2023-08-01T02:21:40;94266.88;;;22.88;53.55
33191;BME280;19554;42.652;23.364;2023-08-01T02:24:05;94268.38;;;22.48;55.41
33191;BME280;19554;42.652;23.364;2023-08-01T02:26:31;94249.66;;;22.10;56.37
33191;BME280;19554;42.652;23.364;2023-08-01T02:28:56;94266.69;;;22.07;57.34
33191;BME280;19554;42.652;23.364;2023-08-01T02:31:21;94263.47;;;21.97;57.45
33191;BME280;19554;42.652;23.364;2023-08-01T02:33:47;94264.81;;;22.11;56.94
33191;BME280;19554;42.652;23.364;2023-08-01T02:36:12;94263.75;;;22.15;57.13
33191;BME280;19554;42.652;23.364;2023-08-01T02:38:37;94257.59;;;22.22;56.89
33191;BME280;19554;42.652;23.364;2023-08-01T02:41:03;94226.34;;;22.09;56.68
33191;BME280;19554;42.652;23.364;2023-08-01T02:43:28;94263.31;;;22.43;56.21
33191;BME280;19554;42.652;23.364;2023-08-01T02:45:54;94250.56;;;22.51;55.59
33191;BME280;19554;42.652;23.364;2023-08-01T02:48:19;94263.91;;;22.63;55.04
33191;BME280;19554;42.652;23.364;2023-08-01T02:50:45;94190.44;;;22.22;54.71
33191;BME280;19554;42.652;23.364;2023-08-01T02:53:11;94270.63;;;22.77;54.43
33191;BME280;19554;42.652;23.364;2023-08-01T02:55:36;94258.22;;;22.79;54.10
33191;BME280;19554;42.652;23.364;2023-08-01T02:58:01;94261.38;;;22.81;53.80
33191;BME280;19554;42.652;23.364;2023-08-01T03:00:27;94252.84;;;22.86;53.79
33191;BME280;19554;42.652;23.364;2023-08-01T03:02:52;94263.75;;;22.90;53.60
33191;BME280;19554;42.652;23.364;2023-08-01T03:05:18;94262.22;;;22.89;53.67
33191;BME280;19554;42.652;23.364;2023-08-01T03:07:43;94242.75;;;22.87;53.64
33191;BME280;19554;42.652;23.364;2023-08-01T03:10:09;94261.47;;;22.92;53.40
33191;BME280;19554;42.652;23.364;2023-08-01T03:12:36;94205.09;;;22.52;52.83
33191;BME280;19554;42.652;23.364;2023-08-01T03:15:02;94264.50;;;22.87;53.34
33191;BME280;19554;42.652;23.364;2023-08-01T03:17:28;94256.66;;;22.78;53.84
33191;BME280;19554;42.652;23.364;2023-08-01T03:19:53;94255.44;;;22.72;53.80
33191;BME280;19554;42.652;23.364;2023-08-01T03:22:18;94254.69;;;22.75;53.50
33191;BME280;19554;42.652;23.364;2023-08-01T03:24:44;94237.44;;;22.60;53.10
33191;BME280;19554;42.652;23.364;2023-08-01T03:27:09;94257.00;;;22.73;52.91
33191;BME280;19554;42.652;23.364;2023-08-01T03:29:35;94268.22;;;22.68;52.96
33191;BME280;19554;42.652;23.364;2023-08-01T03:32:00;94256.53;;;22.64;52.87
33191;BME280;19554;42.652;23.364;2023-08-01T03:34:25;94265.81;;;22.63;52.65
33191;BME280;19554;42.652;23.364;2023-08-01T03:36:52;94271.78;;;22.38;54.80
33191;BME280;19554;42.652;23.364;2023-08-01T03:39:17;94276.81;;;21.53;58.79
33191;BME280;19554;42.652;23.364;2023-08-01T03:41:43;94278.56;;;21.19;60.14
33191;BME280;19554;42.652;23.364;2023-08-01T03:44:08;94265.44;;;20.98;60.70
33191;BME280;19554;42.652;23.364;2023-08-01T03:46:34;94277.84;;;20.76;61.91
33191;BME280;19554;42.652;23.364;2023-08-01T03:48:59;94281.88;;;20.63;62.68
33191;BME280;19554;42.652;23.364;2023-08-01T03:51:24;94280.78;;;20.28;63.87
33191;BME280;19554;42.652;23.364;2023-08-01T03:53:50;94284.72;;;20.31;64.22
33191;BME280;19554;42.652;23.364;2023-08-01T03:56:15;94285.13;;;20.33;64.15
33191;BME280;19554;42.652;23.364;2023-08-01T03:58:41;94291.88;;;20.58;63.33
33191;BME280;19554;42.652;23.364;2023-08-01T04:01:06;94290.97;;;20.74;63.05
33191;BME280;19554;42.652;23.364;2023-08-01T04:03:32;94288.63;;;20.72;61.98
33191;BME280;19554;42.652;23.364;2023-08-01T04:05:57;94276.06;;;20.64;62.26
33191;BME280;19554;42.652;23.364;2023-08-01T04:08:23;94292.09;;;20.92;61.35
33191;BME280;19554;42.652;23.364;2023-08-01T04:10:49;94291.63;;;21.10;61.20
33191;BME280;19554;42.652;23.364;2023-08-01T04:13:15;94300.50;;;21.33;60.49
33191;BME280;19554;42.652;23.364;2023-08-01T04:15:40;94293.94;;;21.57;59.45
33191;BME280;19554;42.652;23.364;2023-08-01T04:18:06;94288.38;;;21.73;58.80
33191;BME280;19554;42.652;23.364;2023-08-01T04:20:31;94295.88;;;22.10;57.58
33191;BME280;19554;42.652;23.364;2023-08-01T04:22:56;94291.97;;;22.37;56.47
33191;BME280;19554;42.652;23.364;2023-08-01T04:25:22;94276.38;;;22.34;56.04
33191;BME280;19554;42.652;23.364;2023-08-01T04:27:50;94301.44;;;22.84;54.83
33191;BME280;19554;42.652;23.364;2023-08-01T04:30:15;94301.94;;;22.93;54.43
33191;BME280;19554;42.652;23.364;2023-08-01T04:32:40;94298.22;;;23.09;54.12
33191;BME280;19554;42.652;23.364;2023-08-01T04:35:06;94301.31;;;23.11;54.13
33191;BME280;19554;42.652;23.364;2023-08-01T04:37:32;94292.50;;;23.25;53.93
33191;BME280;19554;42.652;23.364;2023-08-01T04:39:57;94282.34;;;23.66;52.45
33191;BME280;19554;42.652;23.364;2023-08-01T04:42:22;94295.34;;;23.87;51.76
33191;BME280;19554;42.652;23.364;2023-08-01T04:44:48;94299.75;;;24.06;51.11
33191;BME280;19554;42.652;23.364;2023-08-01T04:47:14;94292.88;;;24.37;49.80
33191;BME280;19554;42.652;23.364;2023-08-01T04:49:39;94265.56;;;24.26;49.63
33191;BME280;19554;42.652;23.364;2023-08-01T04:52:05;94286.88;;;24.97;48.17
33191;BME280;19554;42.652;23.364;2023-08-01T04:54:30;94291.63;;;25.29;46.91
33191;BME280;19554;42.652;23.364;2023-08-01T04:56:55;94261.97;;;25.35;46.23
33191;BME280;19554;42.652;23.364;2023-08-01T04:59:21;94278.38;;;25.49;45.90
33191;BME280;19554;42.652;23.364;2023-08-01T05:01:46;94284.97;;;26.05;45.42
33191;BME280;19554;42.652;23.364;2023-08-01T05:04:12;94163.19;;;25.47;44.26
33191;BME280;19554;42.652;23.364;2023-08-01T05:06:37;94284.94;;;26.19;44.77
33191;BME280;19554;42.652;23.364;2023-08-01T05:09:02;94268.16;;;26.07;44.48
33191;BME280;19554;42.652;23.364;2023-08-01T05:11:28;94281.31;;;26.51;43.60
33191;BME280;19554;42.652;23.364;2023-08-01T05:13:53;94285.88;;;26.83;42.76
33191;BME280;19554;42.652;23.364;2023-08-01T05:16:19;94282.66;;;26.99;42.03
33191;BME280;19554;42.652;23.364;2023-08-01T05:18:44;94261.22;;;26.83;41.47
33191;BME280;19554;42.652;23.364;2023-08-01T05:21:09;94288.00;;;27.24;40.52
33191;BME280;19554;42.652;23.364;2023-08-01T05:23:35;94285.38;;;27.02;40.99
33191;BME280;19554;42.652;23.364;2023-08-01T05:26:00;94290.16;;;26.91;41.37
33191;BME280;19554;42.652;23.364;2023-08-01T05:28:26;94289.81;;;26.78;41.46
33191;BME280;19554;42.652;23.364;2023-08-01T05:30:51;94287.44;;;26.80;41.62
33191;BME280;19554;42.652;23.364;2023-08-01T05:33:16;94283.09;;;26.90;41.73
33191;BME280;19554;42.652;23.364;2023-08-01T05:35:42;94285.25;;;26.50;41.87
33191;BME280;19554;42.652;23.364;2023-08-01T05:38:07;94296.19;;;26.43;41.77
33191;BME280;19554;42.652;23.364;2023-08-01T05:40:32;94265.72;;;26.34;41.79
33191;BME280;19554;42.652;23.364;2023-08-01T05:42:58;94292.28;;;26.51;41.73
33191;BME280;19554;42.652;23.364;2023-08-01T05:45:24;94288.00;;;26.43;41.77
33191;BME280;19554;42.652;23.364;2023-08-01T05:47:49;94289.13;;;26.56;41.00
33191;BME280;19554;42.652;23.364;2023-08-01T05:50:15;94287.53;;;26.62;41.20
33191;BME280;19554;42.652;23.364;2023-08-01T05:52:40;94284.34;;;26.75;41.08
33191;BME280;19554;42.652;23.364;2023-08-01T05:55:06;94268.59;;;26.93;40.76
33191;BME280;19554;42.652;23.364;2023-08-01T05:57:31;94280.38;;;26.83;40.01
33191;BME280;19554;42.652;23.364;2023-08-01T05:59:57;94286.50;;;27.08;39.61
33191;BME280;19554;42.652;23.364;2023-08-01T06:02:22;94288.78;;;27.21;38.37
33191;BME280;19554;42.652;23.364;2023-08-01T06:04:47;94287.88;;;27.38;39.14
33191;BME280;19554;42.652;23.364;2023-08-01T06:07:13;94271.22;;;27.67;37.54
33191;BME280;19554;42.652;23.364;2023-08-01T06:09:38;94277.38;;;27.81;37.06
33191;BME280;19554;42.652;23.364;2023-08-01T06:12:04;94283.22;;;27.35;37.41
33191;BME280;19554;42.652;23.364;2023-08-01T06:14:30;94206.97;;;26.60;38.20
33191;BME280;19554;42.652;23.364;2023-08-01T06:16:55;94221.84;;;26.59;38.52
33191;BME280;19554;42.652;23.364;2023-08-01T06:19:20;94266.19;;;27.06;37.81
33191;BME280;19554;42.652;23.364;2023-08-01T06:21:46;94284.91;;;27.22;37.30
33191;BME280;19554;42.652;23.364;2023-08-01T06:24:11;94275.31;;;27.44;37.34
33191;BME280;19554;42.652;23.364;2023-08-01T06:26:36;94262.81;;;27.43;36.52
33191;BME280;19554;42.652;23.364;2023-08-01T06:29:02;94239.50;;;27.17;37.77
33191;BME280;19554;42.652;23.364;2023-08-01T06:31:27;94278.53;;;27.35;37.34
33191;BME280;19554;42.652;23.364;2023-08-01T06:33:53;94270.47;;;27.62;37.13
33191;BME280;19554;42.652;23.364;2023-08-01T06:36:18;94271.28;;;27.59;36.71
33191;BME280;19554;42.652;23.364;2023-08-01T06:38:43;94269.28;;;27.63;36.78
33191;BME280;19554;42.652;23.364;2023-08-01T06:41:09;94269.94;;;27.30;39.03
33191;BME280;19554;42.652;23.364;2023-08-01T06:43:35;94266.50;;;27.19;39.01
33191;BME280;19554;42.652;23.364;2023-08-01T06:46:03;94210.72;;;26.91;38.01
33191;BME280;19554;42.652;23.364;2023-08-01T06:48:29;94262.84;;;27.39;38.34
33191;BME280;19554;42.652;23.364;2023-08-01T06:50:54;94266.06;;;27.76;37.51
33191;BME280;19554;42.652;23.364;2023-08-01T06:53:19;94269.78;;;27.51;38.10
33191;BME280;19554;42.652;23.364;2023-08-01T06:55:45;94266.75;;;27.38;38.23
33191;BME280;19554;42.652;23.364;2023-08-01T06:58:10;94268.34;;;27.36;38.46
33191;BME280;19554;42.652;23.364;2023-08-01T07:00:36;94269.97;;;27.26;38.72
33191;BME280;19554;42.652;23.364;2023-08-01T07:03:01;94271.72;;;26.95;38.57
33191;BME280;19554;42.652;23.364;2023-08-01T07:05:27;94191.06;;;26.37;38.86
33191;BME280;19554;42.652;23.364;2023-08-01T07:07:52;94262.69;;;27.02;38.13
33191;BME280;19554;42.652;23.364;2023-08-01T07:10:17;94260.66;;;27.16;37.72
33191;BME280;19554;42.652;23.364;2023-08-01T07:12:43;94263.22;;;27.38;37.86
33191;BME280;19554;42.652;23.364;2023-08-01T07:15:09;94257.53;;;27.67;37.08
33191;BME280;19554;42.652;23.364;2023-08-01T07:17:34;94239.13;;;28.05;37.26
33191;BME280;19554;42.652;23.364;2023-08-01T07:20:00;94257.41;;;28.19;36.23
33191;BME280;19554;42.652;23.364;2023-08-01T07:22:25;94245.00;;;28.03;36.05
33191;BME280;19554;42.652;23.364;2023-08-01T07:24:54;94234.03;;;28.03;36.54
33191;BME280;19554;42.652;23.364;2023-08-01T07:27:20;94255.63;;;28.01;36.47
33191;BME280;19554;42.652;23.364;2023-08-01T07:29:45;94240.03;;;28.29;35.76
33191;BME280;19554;42.652;23.364;2023-08-01T07:32:11;94243.84;;;28.73;34.75
33191;BME280;19554;42.652;23.364;2023-08-01T07:34:36;94241.09;;;28.73;35.07
33191;BME280;19554;42.652;23.364;2023-08-01T07:37:02;94235.44;;;28.84;34.87
33191;BME280;19554;42.652;23.364;2023-08-01T07:39:27;94239.06;;;29.08;34.52
33191;BME280;19554;42.652;23.364;2023-08-01T07:41:52;94237.03;;;29.12;34.40
33191;BME280;19554;42.652;23.364;2023-08-01T07:44:18;94236.16;;;28.88;34.52
33191;BME280;19554;42.652;23.364;2023-08-01T07:46:43;94180.72;;;28.69;34.42
33191;BME280;19554;42.652;23.364;2023-08-01T07:49:08;94239.56;;;29.26;33.96
33191;BME280;19554;42.652;23.364;2023-08-01T07:51:34;94229.31;;;29.30;33.31
33191;BME280;19554;42.652;23.364;2023-08-01T07:53:59;94248.66;;;29.46;32.94
33191;BME280;19554;42.652;23.364;2023-08-01T07:56:25;94239.34;;;29.40;33.40
33191;BME280;19554;42.652;23.364;2023-08-01T07:58:50;94238.56;;;29.13;33.17
33191;BME280;19554;42.652;23.364;2023-08-01T08:01:16;94163.13;;;28.90;33.21
33191;BME280;19554;42.652;23.364;2023-08-01T08:03:41;94227.88;;;29.69;33.16
33191;BME280;19554;42.652;23.364;2023-08-01T08:06:06;94229.78;;;29.95;32.91
33191;BME280;19554;42.652;23.364;2023-08-01T08:08:32;94226.78;;;29.86;32.60
33191;BME280;19554;42.652;23.364;2023-08-01T08:11:02;94236.94;;;29.42;33.26
33191;BME280;19554;42.652;23.364;2023-08-01T08:13:27;94229.97;;;29.11;34.27
33191;BME280;19554;42.652;23.364;2023-08-01T08:15:55;94228.31;;;28.90;34.27
33191;BME280;19554;42.652;23.364;2023-08-01T08:18:22;94215.53;;;29.07;34.03
33191;BME280;19554;42.652;23.364;2023-08-01T08:20:47;94220.13;;;29.13;34.03
33191;BME280;19554;42.652;23.364;2023-08-01T08:23:13;94186.72;;;28.88;33.97
33191;BME280;19554;42.652;23.364;2023-08-01T08:25:42;94217.69;;;29.19;33.63
33191;BME280;19554;42.652;23.364;2023-08-01T08:28:11;94218.72;;;29.01;33.82
33191;BME280;19554;42.652;23.364;2023-08-01T08:30:36;94215.06;;;29.35;33.32
33191;BME280;19554;42.652;23.364;2023-08-01T08:33:03;94213.69;;;29.70;33.01
33191;BME280;19554;42.652;23.364;2023-08-01T08:35:35;94210.31;;;29.63;32.25
33191;BME280;19554;42.652;23.364;2023-08-01T08:38:02;94205.28;;;29.58;32.55
33191;BME280;19554;42.652;23.364;2023-08-01T08:40:31;94205.34;;;29.97;32.29
33191;BME280;19554;42.652;23.364;2023-08-01T08:42:57;94200.50;;;30.25;31.81
33191;BME280;19554;42.652;23.364;2023-08-01T08:45:27;94198.72;;;30.55;30.91
33191;BME280;19554;42.652;23.364;2023-08-01T08:47:55;94193.13;;;30.78;30.28
33191;BME280;19554;42.652;23.364;2023-08-01T08:50:24;94191.84;;;30.83;30.09
33191;BME280;19554;42.652;23.364;2023-08-01T08:52:51;94184.25;;;30.11;31.09
33191;BME280;19554;42.652;23.364;2023-08-01T08:55:18;94188.31;;;30.26;31.01
33191;BME280;19554;42.652;23.364;2023-08-01T08:57:50;94188.88;;;30.37;31.00
33191;BME280;19554;42.652;23.364;2023-08-01T09:00:17;94180.53;;;30.41;31.20
33191;BME280;19554;42.652;23.364;2023-08-01T09:02:43;94171.50;;;30.40;31.19
33191;BME280;19554;42.652;23.364;2023-08-01T09:05:09;94182.03;;;30.62;30.88
33191;BME280;19554;42.652;23.364;2023-08-01T09:07:38;94178.28;;;30.72;30.83
33191;BME280;19554;42.652;23.364;2023-08-01T09:10:04;94135.06;;;30.13;31.20
33191;BME280;19554;42.652;23.364;2023-08-01T09:12:34;94174.13;;;30.28;30.86
33191;BME280;19554;42.652;23.364;2023-08-01T09:15:00;94173.81;;;30.02;31.64
33191;BME280;19554;42.652;23.364;2023-08-01T09:17:25;94160.75;;;30.06;31.34
33191;BME280;19554;42.652;23.364;2023-08-01T09:20:27;94167.66;;;29.94;31.80
33191;BME280;19554;42.652;23.364;2023-08-01T09:22:47;94178.81;;;29.87;31.69
33191;BME280;19554;42.652;23.364;2023-08-01T09:25:14;94160.91;;;29.79;32.02
33191;BME280;19554;42.652;23.364;2023-08-01T09:27:39;94155.28;;;29.39;32.41
33191;BME280;19554;42.652;23.364;2023-08-01T09:30:10;94158.47;;;29.38;32.93
33191;BME280;19554;42.652;23.364;2023-08-01T09:32:36;94161.75;;;29.29;32.95
33191;BME280;19554;42.652;23.364;2023-08-01T09:35:02;94164.03;;;29.58;32.30
33191;BME280;19554;42.652;23.364;2023-08-01T09:37:39;94158.16;;;29.56;32.53
33191;BME280;19554;42.652;23.364;2023-08-01T09:40:05;94131.88;;;29.31;32.81
33191;BME280;19554;42.652;23.364;2023-08-01T09:42:41;94149.91;;;29.32;33.19
33191;BME280;19554;42.652;23.364;2023-08-01T09:45:17;94147.16;;;29.56;33.01
33191;BME280;19554;42.652;23.364;2023-08-01T09:47:44;94142.69;;;29.85;32.73
33191;BME280;19554;42.652;23.364;2023-08-01T09:50:11;94129.56;;;30.13;32.01
33191;BME280;19554;42.652;23.364;2023-08-01T09:52:37;94145.78;;;30.47;31.69
33191;BME280;19554;42.652;23.364;2023-08-01T09:55:02;94082.03;;;30.29;31.25
33191;BME280;19554;42.652;23.364;2023-08-01T09:57:30;94105.59;;;30.66;30.83
33191;BME280;19554;42.652;23.364;2023-08-01T09:59:56;94129.13;;;30.71;31.09
33191;BME280;19554;42.652;23.364;2023-08-01T10:02:24;94128.00;;;30.12;31.92
33191;BME280;19554;42.652;23.364;2023-08-01T10:04:52;94085.25;;;29.47;32.71
33191;BME280;19554;42.652;23.364;2023-08-01T10:07:21;94114.16;;;29.56;33.02
33191;BME280;19554;42.652;23.364;2023-08-01T10:09:48;94109.84;;;29.78;32.80
33191;BME280;19554;42.652;23.364;2023-08-01T10:12:17;94112.63;;;29.94;32.57
33191;BME280;19554;42.652;23.364;2023-08-01T10:14:44;94105.72;;;30.26;31.94
33191;BME280;19554;42.652;23.364;2023-08-01T10:17:10;94085.78;;;30.38;31.83
33191;BME280;19554;42.652;23.364;2023-08-01T10:19:37;94096.47;;;30.53;31.89
33191;BME280;19554;42.652;23.364;2023-08-01T10:22:04;94094.84;;;30.55;31.27
33191;BME280;19554;42.652;23.364;2023-08-01T10:24:31;94088.22;;;30.69;31.43
33191;BME280;19554;42.652;23.364;2023-08-01T10:26:57;94091.19;;;30.78;31.42
33191;BME280;19554;42.652;23.364;2023-08-01T10:29:34;94093.59;;;30.92;30.97
33191;BME280;19554;42.652;23.364;2023-08-01T10:32:00;94093.59;;;30.92;31.07
33191;BME280;19554;42.652;23.364;2023-08-01T10:34:26;94058.81;;;30.82;30.79
33191;BME280;19554;42.652;23.364;2023-08-01T10:36:58;94020.22;;;30.50;31.06
33191;BME280;19554;42.652;23.364;2023-08-01T10:39:25;94079.47;;;30.90;30.69
33191;BME280;19554;42.652;23.364;2023-08-01T10:44:24;94053.44;;;30.59;30.97
33191;BME280;19554;42.652;23.364;2023-08-01T10:46:54;94080.25;;;30.38;31.80
33191;BME280;19554;42.652;23.364;2023-08-01T10:49:42;94074.94;;;29.91;31.90
33191;BME280;19554;42.652;23.364;2023-08-01T10:52:18;94061.16;;;29.75;32.50
33191;BME280;19554;42.652;23.364;2023-08-01T10:54:44;94055.94;;;29.17;32.97
33191;BME280;19554;42.652;23.364;2023-08-01T10:57:18;94048.53;;;28.91;32.86
33191;BME280;19554;42.652;23.364;2023-08-01T10:59:44;94060.22;;;28.95;33.15
33191;BME280;19554;42.652;23.364;2023-08-01T11:02:09;94060.53;;;29.24;32.79
33191;BME280;19554;42.652;23.364;2023-08-01T11:04:34;94062.03;;;29.48;32.65
33191;BME280;19554;42.652;23.364;2023-08-01T11:07:01;94047.88;;;29.70;32.03
33191;BME280;19554;42.652;23.364;2023-08-01T11:09:27;94038.56;;;29.84;31.95
33191;BME280;19554;42.652;23.364;2023-08-01T11:11:55;94042.97;;;29.97;31.91
33191;BME280;19554;42.652;23.364;2023-08-01T11:14:26;94040.06;;;30.05;31.50
33191;BME280;19554;42.652;23.364;2023-08-01T11:16:54;94041.47;;;30.13;31.64
33191;BME280;19554;42.652;23.364;2023-08-01T11:19:25;93994.91;;;29.86;31.30
33191;BME280;19554;42.652;23.364;2023-08-01T11:21:51;93952.66;;;29.76;31.40
33191;BME280;19554;42.652;23.364;2023-08-01T11:24:18;94023.56;;;30.41;30.66
33191;BME280;19554;42.652;23.364;2023-08-01T11:26:46;94026.66;;;30.43;30.55
33191;BME280;19554;42.652;23.364;2023-08-01T11:29:13;93959.91;;;29.86;30.90
33191;BME280;19554;42.652;23.364;2023-08-01T11:31:40;94019.66;;;30.22;30.38
33191;BME280;19554;42.652;23.364;2023-08-01T11:34:08;94018.03;;;30.25;30.43
33191;BME280;19554;42.652;23.364;2023-08-01T11:36:36;93969.06;;;30.16;30.00
33191;BME280;19554;42.652;23.364;2023-08-01T11:39:02;94009.34;;;30.42;30.32
33191;BME280;19554;42.652;23.364;2023-08-01T11:41:28;94020.00;;;30.24;30.59
33191;BME280;19554;42.652;23.364;2023-08-01T11:43:54;94018.53;;;29.83;31.47
33191;BME280;19554;42.652;23.364;2023-08-01T11:46:22;94018.59;;;29.80;31.64
33191;BME280;19554;42.652;23.364;2023-08-01T11:48:48;93997.09;;;29.55;31.38
33191;BME280;19554;42.652;23.364;2023-08-01T11:51:16;94000.00;;;29.67;31.50
33191;BME280;19554;42.652;23.364;2023-08-01T11:53:42;94002.94;;;29.77;31.66
33191;BME280;19554;42.652;23.364;2023-08-01T11:56:08;93878.38;;;29.03;31.21
33191;BME280;19554;42.652;23.364;2023-08-01T11:58:35;93996.13;;;30.01;30.98
33191;BME280;19554;42.652;23.364;2023-08-01T12:03:27;93991.63;;;30.27;30.08
33191;BME280;19554;42.652;23.364;2023-08-01T12:06:02;93980.16;;;30.12;30.27
33191;BME280;19554;42.652;23.364;2023-08-01T12:08:31;93977.19;;;30.23;29.76
33191;BME280;19554;42.652;23.364;2023-08-01T12:10:57;93977.50;;;30.25;29.94
33191;BME280;19554;42.652;23.364;2023-08-01T12:13:24;93975.09;;;30.27;29.57
33191;BME280;19554;42.652;23.364;2023-08-01T12:15:51;93966.81;;;30.11;30.20
33191;BME280;19554;42.652;23.364;2023-08-01T12:18:28;93964.19;;;30.24;29.54
33191;BME280;19554;42.652;23.364;2023-08-01T12:20:54;93954.31;;;30.26;29.60
33191;BME280;19554;42.652;23.364;2023-08-01T12:23:19;93967.91;;;30.33;29.50
33191;BME280;19554;42.652;23.364;2023-08-01T12:25:46;93895.59;;;29.96;29.10
33191;BME280;19554;42.652;23.364;2023-08-01T12:28:13;93897.03;;;30.01;29.54
33191;BME280;19554;42.652;23.364;2023-08-01T12:30:41;93952.81;;;30.54;28.94
33191;BME280;19554;42.652;23.364;2023-08-01T12:33:08;93906.69;;;30.42;28.25
33191;BME280;19554;42.652;23.364;2023-08-01T12:35:33;93927.75;;;30.65;27.81
33191;BME280;19554;42.652;23.364;2023-08-01T12:37:59;93943.41;;;30.68;28.00
33191;BME280;19554;42.652;23.364;2023-08-01T12:40:24;93939.03;;;30.71;28.59
33191;BME280;19554;42.652;23.364;2023-08-01T12:42:50;93937.94;;;30.35;30.10
33191;BME280;19554;42.652;23.364;2023-08-01T12:45:15;93932.78;;;30.21;30.49
33191;BME280;19554;42.652;23.364;2023-08-01T12:47:40;93904.59;;;29.81;30.69
33191;BME280;19554;42.652;23.364;2023-08-01T12:50:06;93927.53;;;29.74;31.35